Wetterstation Vordersexau
Wetterdaten: Juni 2018
Datum Temp. A. Feuchte A. Luftdruck Regen Wind Richtung Taupunkt Windchill Windben
01.06.2018 18,7 C 73 % 1016,0 hPa 7,3 l/m 3,1 km/h O-NO 13,6 C 18,4 C 1,7 km/h
02.06.2018 19,6 C 71 % 1016,2 hPa 0,0 l/m 2,1 km/h O-NO 13,8 C 19,4 C 1,2 km/h
03.06.2018 20,1 C 76 % 1013,2 hPa 5,7 l/m 2,8 km/h O-NO 15,6 C 19,9 C 1,6 km/h
04.06.2018 21,3 C 75 % 1007,5 hPa 0,0 l/m 2,7 km/h N-NO 16,5 C 21,0 C 1,5 km/h
05.06.2018 20,0 C 79 % 1007,1 hPa 1,0 l/m 1,4 km/h O-NO 16,1 C 19,8 C 0,8 km/h
06.06.2018 20,4 C 77 % 1008,9 hPa 0,5 l/m 1,2 km/h O-NO 16,2 C 20,4 C 0,7 km/h
07.06.2018 20,1 C 77 % 1012,2 hPa 3,1 l/m 2,2 km/h W-SW 15,9 C 19,8 C 1,2 km/h
08.06.2018 19,7 C 79 % 1009,8 hPa 3,1 l/m 0,8 km/h SO 15,8 C 19,6 C 0,5 km/h
09.06.2018 20,4 C 76 % 1009,7 hPa 0,0 l/m 0,7 km/h SO 15,9 C 20,3 C 0,4 km/h
10.06.2018 22,3 C 74 % 1009,0 hPa 0,0 l/m 0,6 km/h O-NO 17,3 C 22,3 C 0,3 km/h
11.06.2018 19,9 C 81 % 1007,3 hPa 4,1 l/m 1,8 km/h O-NO 16,6 C 19,7 C 1,0 km/h
12.06.2018 18,7 C 78 % 1006,6 hPa 0,5 l/m 3,3 km/h O-NO 14,8 C 18,1 C 1,8 km/h
13.06.2018 16,1 C 74 % 1010,9 hPa 0,0 l/m 3,0 km/h N 11,3 C 15,7 C 1,7 km/h
14.06.2018 16,0 C 68 % 1013,8 hPa 0,0 l/m 2,6 km/h SO 9,8 C 15,6 C 1,4 km/h
15.06.2018 18,7 C 69 % 1013,6 hPa 0,0 l/m 1,4 km/h N-NW 12,5 C 18,5 C 0,8 km/h
16.06.2018 20,2 C 65 % 1012,9 hPa 0,0 l/m 0,7 km/h O-NO 13,0 C 20,1 C 0,4 km/h
17.06.2018 19,9 C 67 % 1016,1 hPa 0,0 l/m 1,5 km/h O-SO 13,4 C 19,7 C 0,8 km/h
18.06.2018 19,9 C 65 % 1019,8 hPa 0,0 l/m 0,4 km/h N-NO 12,7 C 19,9 C 0,2 km/h
19.06.2018 21,1 C 66 % 1021,1 hPa 0,0 l/m 2,1 km/h SO 14,2 C 21,0 C 1,2 km/h
20.06.2018 22,9 C 68 % 1017,3 hPa 0,0 l/m 0,7 km/h O-NO 16,3 C 22,9 C 0,4 km/h
21.06.2018 22,1 C 63 % 1015,2 hPa 0,0 l/m 2,0 km/h NO 14,3 C 21,8 C 1,1 km/h
22.06.2018 15,0 C 55 % 1022,4 hPa 0,0 l/m 2,9 km/h N-NO 6,0 C 14,5 C 1,6 km/h
23.06.2018 15,2 C 63 % 1022,0 hPa 0,0 l/m 2,5 km/h O-SO 7,8 C 14,8 C 1,4 km/h
24.06.2018 16,3 C 66 % 1018,5 hPa 0,0 l/m 2,0 km/h N-NW 9,5 C 16,1 C 1,1 km/h
25.06.2018 18,3 C 63 % 1018,8 hPa 0,0 l/m 3,5 km/h O-NO 10,6 C 17,8 C 2,0 km/h
26.06.2018 19,4 C 63 % 1019,1 hPa 0,0 l/m 1,6 km/h N-NO 11,7 C 19,3 C 0,9 km/h
27.06.2018 21,2 C 55 % 1017,3 hPa 0,0 l/m 4,7 km/h NO 11,1 C 20,8 C 2,6 km/h
28.06.2018 20,5 C 52 % 1015,3 hPa 0,0 l/m 3,0 km/h NO 10,3 C 20,2 C 1,7 km/h
29.06.2018 22,7 C 61 % 1011,9 hPa 0,0 l/m 2,3 km/h NO 14,6 C 22,5 C 1,3 km/h
30.06.2018 24,4 C 61 % 1009,4 hPa 0,0 l/m 3,4 km/h N-NW 15,8 C 24,3 C 1,9 km/h
Min-Datum 23.06.18 27.06.18 04.06.18 8 Tage 01.06.18 - 22.06.18 23.06.18 01.06.18
Min-Zeit 05:53 20:53 17:53 - 00:53 - 05:53 05:53 00:53
Minimum 7,8 C 38 % 1003,8 hPa - 0,0 km/h - 3,7 C 7,8 C 0,0 km/h
Max-Datum 30.06.18 14.06.18 22.06.18 01.06.18 23.06.18 - 04.06.18 30.06.18 23.06.18
Max-Zeit 16:53 06:53 23:53 18:53 14:53 - 16:53 16:53 14:53
Maximum 31,9 C 85 % 1023,8 hPa 7,3 l/m 25,3 km/h
O-SO
- 19,7 C 31,7 C 14,0 km/h
O-SO
Durchschnitt 19,7 C 69 % 1014,0 hPa #25,4 l/m 2,1 km/h O-NO 13,4 C 19,5 C 1,2 km/h

Durchschnitt Minimum Temp.14,3 C
Durchschnitt Maximum Temp.25,3 C
www.sexauwetter.de